Terminal Aerodrome Forecast
Issued by NWS

Home | Current Version | Previous Version | Text Only | Print | Product List | Glossary On
Versions: 1 2 3 4 5 6 7 8 9 10 11 12 13 14 15 16 17 18 19 20 21 22 23 24 25 26 27 28 29 30 31 32 33 34 35 36 37 38 39 40 41 42 43 44 45 46 47 48 49
000
FTUS45 KGJT 311507 AAB
TAFTEX
TAF AMD
KTEX 311507Z 3115/0112 VRB04KT 2SM -SN BR VCSH SCT001 OVC010
      TEMPO 3115/3119 4SM BR SCT010 BKN030 OVC040
     FM311900 27004KT 5SM BR VCSH SCT015 OVC035
     FM010300 14005KT P6SM VCSH SCT015 BKN040=

USA.gov is the U.S. government's official web portal to all federal, state and local government web resources and services.